sensor_id;sensor_type;location;lat;lon;timestamp;P1;durP1;ratioP1;P2;durP2;ratioP2
38972;SDS011;25333;50.762;4.470;2024-03-22T00:00:15;39.33;;;26.13;;
38972;SDS011;25333;50.762;4.470;2024-03-22T00:02:40;39.67;;;25.42;;
38972;SDS011;25333;50.762;4.470;2024-03-22T00:05:06;37.73;;;24.70;;
38972;SDS011;25333;50.762;4.470;2024-03-22T00:07:32;40.20;;;25.58;;
38972;SDS011;25333;50.762;4.470;2024-03-22T00:09:58;34.30;;;22.73;;
38972;SDS011;25333;50.762;4.470;2024-03-22T00:12:23;34.87;;;24.13;;
38972;SDS011;25333;50.762;4.470;2024-03-22T00:14:49;38.65;;;24.20;;
38972;SDS011;25333;50.762;4.470;2024-03-22T00:17:16;34.47;;;22.20;;
38972;SDS011;25333;50.762;4.470;2024-03-22T00:19:42;35.45;;;22.20;;
38972;SDS011;25333;50.762;4.470;2024-03-22T00:22:07;33.15;;;22.58;;
38972;SDS011;25333;50.762;4.470;2024-03-22T00:24:34;32.50;;;21.40;;
38972;SDS011;25333;50.762;4.470;2024-03-22T00:26:59;38.57;;;23.37;;
38972;SDS011;25333;50.762;4.470;2024-03-22T00:29:25;29.37;;;19.50;;
38972;SDS011;25333;50.762;4.470;2024-03-22T00:31:51;29.58;;;20.02;;
38972;SDS011;25333;50.762;4.470;2024-03-22T00:34:17;29.88;;;21.73;;
38972;SDS011;25333;50.762;4.470;2024-03-22T00:36:44;30.90;;;21.35;;
38972;SDS011;25333;50.762;4.470;2024-03-22T00:39:11;35.63;;;21.70;;
38972;SDS011;25333;50.762;4.470;2024-03-22T00:41:37;28.63;;;19.13;;
38972;SDS011;25333;50.762;4.470;2024-03-22T00:44:04;31.70;;;20.53;;
38972;SDS011;25333;50.762;4.470;2024-03-22T00:46:29;30.48;;;19.83;;
38972;SDS011;25333;50.762;4.470;2024-03-22T00:48:55;27.38;;;19.73;;
38972;SDS011;25333;50.762;4.470;2024-03-22T00:51:21;30.10;;;20.33;;
38972;SDS011;25333;50.762;4.470;2024-03-22T00:53:47;28.58;;;19.08;;
38972;SDS011;25333;50.762;4.470;2024-03-22T00:56:13;26.87;;;18.47;;
38972;SDS011;25333;50.762;4.470;2024-03-22T00:58:38;29.67;;;20.00;;
38972;SDS011;25333;50.762;4.470;2024-03-22T01:01:04;29.10;;;19.40;;
38972;SDS011;25333;50.762;4.470;2024-03-22T01:03:29;26.60;;;19.10;;
38972;SDS011;25333;50.762;4.470;2024-03-22T01:05:55;26.88;;;19.02;;
38972;SDS011;25333;50.762;4.470;2024-03-22T01:08:22;25.95;;;17.65;;
38972;SDS011;25333;50.762;4.470;2024-03-22T01:10:48;27.42;;;18.13;;
38972;SDS011;25333;50.762;4.470;2024-03-22T01:13:13;29.40;;;20.50;;
38972;SDS011;25333;50.762;4.470;2024-03-22T01:15:39;29.00;;;19.33;;
38972;SDS011;25333;50.762;4.470;2024-03-22T01:18:05;28.20;;;18.63;;
38972;SDS011;25333;50.762;4.470;2024-03-22T01:20:30;30.47;;;18.93;;
38972;SDS011;25333;50.762;4.470;2024-03-22T01:22:56;28.88;;;19.15;;
38972;SDS011;25333;50.762;4.470;2024-03-22T01:25:27;24.95;;;18.95;;
38972;SDS011;25333;50.762;4.470;2024-03-22T01:27:53;33.38;;;20.42;;
38972;SDS011;25333;50.762;4.470;2024-03-22T01:30:19;28.48;;;17.83;;
38972;SDS011;25333;50.762;4.470;2024-03-22T01:32:44;28.57;;;18.30;;
38972;SDS011;25333;50.762;4.470;2024-03-22T01:35:10;31.23;;;19.57;;
38972;SDS011;25333;50.762;4.470;2024-03-22T01:37:36;27.35;;;19.50;;
38972;SDS011;25333;50.762;4.470;2024-03-22T01:40:02;27.83;;;18.20;;
38972;SDS011;25333;50.762;4.470;2024-03-22T01:42:29;26.58;;;17.65;;
38972;SDS011;25333;50.762;4.470;2024-03-22T01:44:55;29.85;;;18.85;;
38972;SDS011;25333;50.762;4.470;2024-03-22T01:47:21;33.40;;;18.67;;
38972;SDS011;25333;50.762;4.470;2024-03-22T01:49:47;28.90;;;18.10;;
38972;SDS011;25333;50.762;4.470;2024-03-22T01:52:15;28.48;;;18.42;;
38972;SDS011;25333;50.762;4.470;2024-03-22T01:54:41;28.27;;;18.93;;
38972;SDS011;25333;50.762;4.470;2024-03-22T01:57:07;27.80;;;18.55;;
38972;SDS011;25333;50.762;4.470;2024-03-22T01:59:33;29.00;;;18.77;;
38972;SDS011;25333;50.762;4.470;2024-03-22T02:01:59;27.63;;;19.35;;
38972;SDS011;25333;50.762;4.470;2024-03-22T02:04:25;28.10;;;17.93;;
38972;SDS011;25333;50.762;4.470;2024-03-22T02:06:51;30.65;;;19.10;;
38972;SDS011;25333;50.762;4.470;2024-03-22T02:09:17;30.50;;;18.40;;
38972;SDS011;25333;50.762;4.470;2024-03-22T02:11:43;29.15;;;19.42;;
38972;SDS011;25333;50.762;4.470;2024-03-22T02:14:08;29.50;;;19.00;;
38972;SDS011;25333;50.762;4.470;2024-03-22T02:16:34;25.42;;;17.08;;
38972;SDS011;25333;50.762;4.470;2024-03-22T02:19:00;27.73;;;16.50;;
38972;SDS011;25333;50.762;4.470;2024-03-22T02:21:25;27.25;;;16.33;;
38972;SDS011;25333;50.762;4.470;2024-03-22T02:23:51;25.85;;;16.77;;
38972;SDS011;25333;50.762;4.470;2024-03-22T02:26:17;27.70;;;18.27;;
38972;SDS011;25333;50.762;4.470;2024-03-22T02:28:42;27.55;;;17.80;;
38972;SDS011;25333;50.762;4.470;2024-03-22T02:31:08;25.60;;;16.50;;
38972;SDS011;25333;50.762;4.470;2024-03-22T02:33:34;28.75;;;16.77;;
38972;SDS011;25333;50.762;4.470;2024-03-22T02:35:59;23.30;;;15.75;;
38972;SDS011;25333;50.762;4.470;2024-03-22T02:38:25;23.63;;;15.10;;
38972;SDS011;25333;50.762;4.470;2024-03-22T02:40:51;22.75;;;16.40;;
38972;SDS011;25333;50.762;4.470;2024-03-22T02:43:17;21.13;;;15.35;;
38972;SDS011;25333;50.762;4.470;2024-03-22T02:45:44;23.35;;;15.35;;
38972;SDS011;25333;50.762;4.470;2024-03-22T02:48:09;23.52;;;15.05;;
38972;SDS011;25333;50.762;4.470;2024-03-22T02:50:36;20.80;;;15.23;;
38972;SDS011;25333;50.762;4.470;2024-03-22T02:53:02;20.80;;;13.40;;
38972;SDS011;25333;50.762;4.470;2024-03-22T02:55:29;20.30;;;14.50;;
38972;SDS011;25333;50.762;4.470;2024-03-22T02:57:56;21.95;;;14.52;;
38972;SDS011;25333;50.762;4.470;2024-03-22T03:00:22;20.27;;;14.43;;
38972;SDS011;25333;50.762;4.470;2024-03-22T03:02:48;23.60;;;14.95;;
38972;SDS011;25333;50.762;4.470;2024-03-22T03:05:16;19.13;;;14.82;;
38972;SDS011;25333;50.762;4.470;2024-03-22T03:07:42;19.23;;;13.70;;
38972;SDS011;25333;50.762;4.470;2024-03-22T03:10:08;24.50;;;13.82;;
38972;SDS011;25333;50.762;4.470;2024-03-22T03:12:33;23.10;;;13.73;;
38972;SDS011;25333;50.762;4.470;2024-03-22T03:14:59;23.65;;;13.48;;
38972;SDS011;25333;50.762;4.470;2024-03-22T03:17:25;19.20;;;13.40;;
38972;SDS011;25333;50.762;4.470;2024-03-22T03:19:50;21.25;;;13.65;;
38972;SDS011;25333;50.762;4.470;2024-03-22T03:22:16;24.42;;;14.13;;
38972;SDS011;25333;50.762;4.470;2024-03-22T03:24:42;18.67;;;13.20;;
38972;SDS011;25333;50.762;4.470;2024-03-22T03:27:08;16.67;;;12.20;;
38972;SDS011;25333;50.762;4.470;2024-03-22T03:29:34;18.60;;;12.95;;
38972;SDS011;25333;50.762;4.470;2024-03-22T03:31:59;19.97;;;12.77;;
38972;SDS011;25333;50.762;4.470;2024-03-22T03:34:25;16.65;;;10.00;;
38972;SDS011;25333;50.762;4.470;2024-03-22T03:36:51;19.00;;;12.37;;
38972;SDS011;25333;50.762;4.470;2024-03-22T03:39:16;17.25;;;11.63;;
38972;SDS011;25333;50.762;4.470;2024-03-22T03:41:42;18.67;;;11.55;;
38972;SDS011;25333;50.762;4.470;2024-03-22T03:44:08;18.17;;;11.90;;
38972;SDS011;25333;50.762;4.470;2024-03-22T03:46:33;18.65;;;11.98;;
38972;SDS011;25333;50.762;4.470;2024-03-22T03:48:59;15.43;;;11.47;;
38972;SDS011;25333;50.762;4.470;2024-03-22T03:51:25;13.63;;;10.52;;
38972;SDS011;25333;50.762;4.470;2024-03-22T03:53:50;15.50;;;10.83;;
38972;SDS011;25333;50.762;4.470;2024-03-22T03:56:16;17.00;;;10.20;;
38972;SDS011;25333;50.762;4.470;2024-03-22T03:58:42;13.95;;;9.30;;
38972;SDS011;25333;50.762;4.470;2024-03-22T04:01:07;15.33;;;9.47;;
38972;SDS011;25333;50.762;4.470;2024-03-22T04:03:34;15.87;;;10.87;;
38972;SDS011;25333;50.762;4.470;2024-03-22T04:06:00;17.00;;;9.63;;
38972;SDS011;25333;50.762;4.470;2024-03-22T04:08:26;15.77;;;9.93;;
38972;SDS011;25333;50.762;4.470;2024-03-22T04:10:52;14.30;;;10.48;;
38972;SDS011;25333;50.762;4.470;2024-03-22T04:13:21;11.93;;;8.10;;
38972;SDS011;25333;50.762;4.470;2024-03-22T04:15:46;12.00;;;9.00;;
38972;SDS011;25333;50.762;4.470;2024-03-22T04:18:12;17.57;;;9.87;;
38972;SDS011;25333;50.762;4.470;2024-03-22T04:20:38;15.98;;;9.95;;
38972;SDS011;25333;50.762;4.470;2024-03-22T04:23:03;16.53;;;10.77;;
38972;SDS011;25333;50.762;4.470;2024-03-22T04:25:29;14.05;;;10.15;;
38972;SDS011;25333;50.762;4.470;2024-03-22T04:27:55;17.05;;;9.88;;
38972;SDS011;25333;50.762;4.470;2024-03-22T04:30:20;13.87;;;9.00;;
38972;SDS011;25333;50.762;4.470;2024-03-22T04:32:46;16.52;;;9.95;;
38972;SDS011;25333;50.762;4.470;2024-03-22T04:35:12;15.33;;;9.40;;
38972;SDS011;25333;50.762;4.470;2024-03-22T04:37:38;16.20;;;9.95;;
38972;SDS011;25333;50.762;4.470;2024-03-22T04:40:04;14.10;;;10.15;;
38972;SDS011;25333;50.762;4.470;2024-03-22T04:42:30;13.15;;;8.75;;
38972;SDS011;25333;50.762;4.470;2024-03-22T04:44:56;16.92;;;8.73;;
38972;SDS011;25333;50.762;4.470;2024-03-22T04:47:22;12.75;;;8.75;;
38972;SDS011;25333;50.762;4.470;2024-03-22T04:49:48;14.40;;;8.90;;
38972;SDS011;25333;50.762;4.470;2024-03-22T04:52:14;13.63;;;8.80;;
38972;SDS011;25333;50.762;4.470;2024-03-22T04:54:40;12.50;;;8.60;;
38972;SDS011;25333;50.762;4.470;2024-03-22T04:57:05;12.32;;;8.55;;
38972;SDS011;25333;50.762;4.470;2024-03-22T04:59:34;13.63;;;7.83;;
38972;SDS011;25333;50.762;4.470;2024-03-22T05:02:00;13.87;;;9.20;;
38972;SDS011;25333;50.762;4.470;2024-03-22T05:04:25;13.40;;;9.27;;
38972;SDS011;25333;50.762;4.470;2024-03-22T05:06:51;14.53;;;8.10;;
38972;SDS011;25333;50.762;4.470;2024-03-22T05:09:17;13.18;;;8.20;;
38972;SDS011;25333;50.762;4.470;2024-03-22T05:11:42;14.73;;;8.67;;
38972;SDS011;25333;50.762;4.470;2024-03-22T05:14:08;12.67;;;8.03;;
38972;SDS011;25333;50.762;4.470;2024-03-22T05:16:34;12.77;;;8.65;;
38972;SDS011;25333;50.762;4.470;2024-03-22T05:19:00;14.00;;;9.38;;
38972;SDS011;25333;50.762;4.470;2024-03-22T05:21:26;11.93;;;8.37;;
38972;SDS011;25333;50.762;4.470;2024-03-22T05:23:51;11.35;;;8.02;;
38972;SDS011;25333;50.762;4.470;2024-03-22T05:26:17;11.83;;;7.60;;
38972;SDS011;25333;50.762;4.470;2024-03-22T05:28:45;13.40;;;8.70;;
38972;SDS011;25333;50.762;4.470;2024-03-22T05:31:11;12.30;;;7.22;;
38972;SDS011;25333;50.762;4.470;2024-03-22T05:33:37;11.97;;;7.93;;
38972;SDS011;25333;50.762;4.470;2024-03-22T05:36:02;11.15;;;8.18;;
38972;SDS011;25333;50.762;4.470;2024-03-22T05:38:28;15.37;;;8.67;;
38972;SDS011;25333;50.762;4.470;2024-03-22T05:40:54;9.73;;;6.72;;
38972;SDS011;25333;50.762;4.470;2024-03-22T05:43:19;13.87;;;8.93;;
38972;SDS011;25333;50.762;4.470;2024-03-22T05:45:45;13.57;;;8.70;;
38972;SDS011;25333;50.762;4.470;2024-03-22T05:48:11;11.32;;;8.43;;
38972;SDS011;25333;50.762;4.470;2024-03-22T05:50:36;16.07;;;8.90;;
38972;SDS011;25333;50.762;4.470;2024-03-22T05:53:02;13.27;;;8.88;;
38972;SDS011;25333;50.762;4.470;2024-03-22T05:55:28;15.13;;;10.07;;
38972;SDS011;25333;50.762;4.470;2024-03-22T05:57:56;16.25;;;8.75;;
38972;SDS011;25333;50.762;4.470;2024-03-22T06:00:21;14.93;;;9.53;;
38972;SDS011;25333;50.762;4.470;2024-03-22T06:02:47;15.57;;;10.15;;
38972;SDS011;25333;50.762;4.470;2024-03-22T06:05:13;15.30;;;9.30;;
38972;SDS011;25333;50.762;4.470;2024-03-22T06:07:38;14.98;;;9.25;;
38972;SDS011;25333;50.762;4.470;2024-03-22T06:10:07;14.95;;;10.23;;
38972;SDS011;25333;50.762;4.470;2024-03-22T06:12:35;16.15;;;9.93;;
38972;SDS011;25333;50.762;4.470;2024-03-22T06:15:01;13.15;;;9.35;;
38972;SDS011;25333;50.762;4.470;2024-03-22T06:17:31;15.10;;;9.20;;
38972;SDS011;25333;50.762;4.470;2024-03-22T06:19:58;15.18;;;10.13;;
38972;SDS011;25333;50.762;4.470;2024-03-22T06:22:23;14.10;;;9.47;;
38972;SDS011;25333;50.762;4.470;2024-03-22T06:24:49;18.95;;;10.73;;
38972;SDS011;25333;50.762;4.470;2024-03-22T06:27:15;16.52;;;10.48;;
38972;SDS011;25333;50.762;4.470;2024-03-22T06:29:41;16.25;;;11.80;;
38972;SDS011;25333;50.762;4.470;2024-03-22T06:32:06;15.33;;;11.63;;
38972;SDS011;25333;50.762;4.470;2024-03-22T06:34:32;16.52;;;9.77;;
38972;SDS011;25333;50.762;4.470;2024-03-22T06:36:58;15.50;;;11.70;;
38972;SDS011;25333;50.762;4.470;2024-03-22T06:39:23;17.00;;;10.73;;
38972;SDS011;25333;50.762;4.470;2024-03-22T06:41:49;16.90;;;11.47;;
38972;SDS011;25333;50.762;4.470;2024-03-22T06:44:15;16.63;;;10.52;;
38972;SDS011;25333;50.762;4.470;2024-03-22T06:46:40;17.10;;;11.20;;
38972;SDS011;25333;50.762;4.470;2024-03-22T06:49:06;14.23;;;10.02;;
38972;SDS011;25333;50.762;4.470;2024-03-22T06:51:32;17.17;;;10.43;;
38972;SDS011;25333;50.762;4.470;2024-03-22T06:53:57;14.23;;;9.85;;
38972;SDS011;25333;50.762;4.470;2024-03-22T06:56:23;13.70;;;9.23;;
38972;SDS011;25333;50.762;4.470;2024-03-22T06:58:49;14.80;;;10.17;;
38972;SDS011;25333;50.762;4.470;2024-03-22T07:01:14;15.75;;;9.82;;
38972;SDS011;25333;50.762;4.470;2024-03-22T07:03:41;14.02;;;8.57;;
38972;SDS011;25333;50.762;4.470;2024-03-22T07:06:10;15.07;;;9.55;;
38972;SDS011;25333;50.762;4.470;2024-03-22T07:08:36;13.70;;;8.13;;
38972;SDS011;25333;50.762;4.470;2024-03-22T07:11:05;14.60;;;9.73;;
38972;SDS011;25333;50.762;4.470;2024-03-22T07:13:31;13.95;;;8.85;;
38972;SDS011;25333;50.762;4.470;2024-03-22T07:15:57;15.75;;;9.77;;
38972;SDS011;25333;50.762;4.470;2024-03-22T07:18:23;12.73;;;9.15;;
38972;SDS011;25333;50.762;4.470;2024-03-22T07:20:48;13.80;;;9.97;;
38972;SDS011;25333;50.762;4.470;2024-03-22T07:23:14;14.68;;;9.85;;
38972;SDS011;25333;50.762;4.470;2024-03-22T07:25:40;12.53;;;9.10;;
38972;SDS011;25333;50.762;4.470;2024-03-22T07:28:10;14.25;;;8.60;;
38972;SDS011;25333;50.762;4.470;2024-03-22T07:30:36;14.75;;;9.80;;
38972;SDS011;25333;50.762;4.470;2024-03-22T07:33:02;15.27;;;9.05;;
38972;SDS011;25333;50.762;4.470;2024-03-22T07:35:28;12.70;;;9.20;;
38972;SDS011;25333;50.762;4.470;2024-03-22T07:37:54;14.27;;;9.20;;
38972;SDS011;25333;50.762;4.470;2024-03-22T07:40:20;13.63;;;9.02;;
38972;SDS011;25333;50.762;4.470;2024-03-22T07:42:45;11.97;;;9.10;;
38972;SDS011;25333;50.762;4.470;2024-03-22T07:45:11;12.68;;;8.77;;
38972;SDS011;25333;50.762;4.470;2024-03-22T07:47:37;15.13;;;10.20;;
38972;SDS011;25333;50.762;4.470;2024-03-22T07:50:03;13.77;;;9.30;;
38972;SDS011;25333;50.762;4.470;2024-03-22T07:52:29;12.40;;;7.90;;
38972;SDS011;25333;50.762;4.470;2024-03-22T07:54:58;14.82;;;9.52;;
38972;SDS011;25333;50.762;4.470;2024-03-22T07:57:23;17.50;;;11.02;;
38972;SDS011;25333;50.762;4.470;2024-03-22T07:59:49;18.00;;;11.02;;
38972;SDS011;25333;50.762;4.470;2024-03-22T08:02:15;17.63;;;11.67;;
38972;SDS011;25333;50.762;4.470;2024-03-22T08:04:40;16.60;;;9.95;;
38972;SDS011;25333;50.762;4.470;2024-03-22T08:07:06;17.27;;;10.80;;
38972;SDS011;25333;50.762;4.470;2024-03-22T08:09:32;16.55;;;11.52;;
38972;SDS011;25333;50.762;4.470;2024-03-22T08:11:57;18.52;;;11.27;;
38972;SDS011;25333;50.762;4.470;2024-03-22T08:14:23;17.20;;;11.70;;
38972;SDS011;25333;50.762;4.470;2024-03-22T08:16:49;19.67;;;11.50;;
38972;SDS011;25333;50.762;4.470;2024-03-22T08:19:14;15.77;;;11.30;;
38972;SDS011;25333;50.762;4.470;2024-03-22T08:21:40;19.95;;;10.68;;
38972;SDS011;25333;50.762;4.470;2024-03-22T08:24:06;16.77;;;10.37;;
38972;SDS011;25333;50.762;4.470;2024-03-22T08:26:31;14.60;;;10.07;;
38972;SDS011;25333;50.762;4.470;2024-03-22T08:28:57;13.57;;;9.47;;
38972;SDS011;25333;50.762;4.470;2024-03-22T08:31:23;13.75;;;9.02;;
38972;SDS011;25333;50.762;4.470;2024-03-22T08:33:51;14.77;;;9.00;;
38972;SDS011;25333;50.762;4.470;2024-03-22T08:36:17;13.20;;;8.52;;
38972;SDS011;25333;50.762;4.470;2024-03-22T08:38:42;13.75;;;8.48;;
38972;SDS011;25333;50.762;4.470;2024-03-22T08:41:08;13.87;;;8.83;;
38972;SDS011;25333;50.762;4.470;2024-03-22T08:43:34;13.30;;;8.82;;
38972;SDS011;25333;50.762;4.470;2024-03-22T08:45:59;12.97;;;7.90;;
38972;SDS011;25333;50.762;4.470;2024-03-22T08:48:25;15.35;;;8.75;;
38972;SDS011;25333;50.762;4.470;2024-03-22T08:50:51;13.53;;;7.83;;
38972;SDS011;25333;50.762;4.470;2024-03-22T08:53:17;14.32;;;8.52;;
38972;SDS011;25333;50.762;4.470;2024-03-22T08:55:48;12.65;;;8.15;;
38972;SDS011;25333;50.762;4.470;2024-03-22T08:58:14;12.48;;;8.85;;
38972;SDS011;25333;50.762;4.470;2024-03-22T09:00:42;16.00;;;9.13;;
38972;SDS011;25333;50.762;4.470;2024-03-22T09:03:08;12.23;;;7.85;;
38972;SDS011;25333;50.762;4.470;2024-03-22T09:05:34;13.13;;;8.90;;
38972;SDS011;25333;50.762;4.470;2024-03-22T09:08:00;14.73;;;9.20;;
38972;SDS011;25333;50.762;4.470;2024-03-22T09:10:26;13.60;;;8.10;;
38972;SDS011;25333;50.762;4.470;2024-03-22T09:12:51;15.93;;;10.40;;
38972;SDS011;25333;50.762;4.470;2024-03-22T09:15:17;16.35;;;10.95;;
38972;SDS011;25333;50.762;4.470;2024-03-22T09:17:43;14.77;;;10.07;;
38972;SDS011;25333;50.762;4.470;2024-03-22T09:20:09;13.43;;;8.85;;
38972;SDS011;25333;50.762;4.470;2024-03-22T09:22:35;12.68;;;9.38;;
38972;SDS011;25333;50.762;4.470;2024-03-22T09:25:00;17.07;;;10.57;;
38972;SDS011;25333;50.762;4.470;2024-03-22T09:27:26;16.37;;;10.93;;
38972;SDS011;25333;50.762;4.470;2024-03-22T09:29:52;19.23;;;10.73;;
38972;SDS011;25333;50.762;4.470;2024-03-22T09:32:18;18.95;;;10.40;;
38972;SDS011;25333;50.762;4.470;2024-03-22T09:34:43;16.70;;;9.35;;
38972;SDS011;25333;50.762;4.470;2024-03-22T09:37:09;16.65;;;10.73;;
38972;SDS011;25333;50.762;4.470;2024-03-22T09:39:35;14.43;;;10.02;;
38972;SDS011;25333;50.762;4.470;2024-03-22T09:42:01;16.58;;;10.88;;
38972;SDS011;25333;50.762;4.470;2024-03-22T09:44:31;14.60;;;10.33;;
38972;SDS011;25333;50.762;4.470;2024-03-22T09:46:58;15.43;;;10.48;;
38972;SDS011;25333;50.762;4.470;2024-03-22T09:49:24;18.65;;;10.65;;
38972;SDS011;25333;50.762;4.470;2024-03-22T09:51:51;12.93;;;10.07;;
38972;SDS011;25333;50.762;4.470;2024-03-22T09:54:17;16.10;;;10.10;;
38972;SDS011;25333;50.762;4.470;2024-03-22T09:56:43;15.90;;;10.70;;
38972;SDS011;25333;50.762;4.470;2024-03-22T09:59:12;15.38;;;9.80;;
38972;SDS011;25333;50.762;4.470;2024-03-22T10:01:37;13.23;;;8.35;;
38972;SDS011;25333;50.762;4.470;2024-03-22T10:04:06;16.00;;;10.00;;
38972;SDS011;25333;50.762;4.470;2024-03-22T10:06:33;14.57;;;9.60;;
38972;SDS011;25333;50.762;4.470;2024-03-22T10:08:59;15.50;;;9.15;;
38972;SDS011;25333;50.762;4.470;2024-03-22T10:11:25;15.75;;;9.35;;
38972;SDS011;25333;50.762;4.470;2024-03-22T10:13:52;16.30;;;8.60;;
38972;SDS011;25333;50.762;4.470;2024-03-22T10:16:17;12.80;;;7.33;;
38972;SDS011;25333;50.762;4.470;2024-03-22T10:18:43;13.75;;;8.93;;
38972;SDS011;25333;50.762;4.470;2024-03-22T10:21:09;11.23;;;6.85;;
38972;SDS011;25333;50.762;4.470;2024-03-22T10:23:35;13.00;;;8.38;;
38972;SDS011;25333;50.762;4.470;2024-03-22T10:26:00;12.73;;;8.10;;
38972;SDS011;25333;50.762;4.470;2024-03-22T10:28:26;13.13;;;8.20;;
38972;SDS011;25333;50.762;4.470;2024-03-22T10:30:52;12.65;;;8.55;;
38972;SDS011;25333;50.762;4.470;2024-03-22T10:33:18;12.05;;;8.40;;
38972;SDS011;25333;50.762;4.470;2024-03-22T10:35:46;12.25;;;8.45;;
38972;SDS011;25333;50.762;4.470;2024-03-22T10:38:12;12.98;;;8.13;;
38972;SDS011;25333;50.762;4.470;2024-03-22T10:40:38;13.15;;;8.63;;
38972;SDS011;25333;50.762;4.470;2024-03-22T10:43:09;14.35;;;7.57;;
38972;SDS011;25333;50.762;4.470;2024-03-22T10:45:34;14.40;;;8.23;;
38972;SDS011;25333;50.762;4.470;2024-03-22T10:48:01;11.10;;;7.20;;
38972;SDS011;25333;50.762;4.470;2024-03-22T10:50:34;15.23;;;7.97;;
38972;SDS011;25333;50.762;4.470;2024-03-22T10:53:03;12.45;;;7.47;;
38972;SDS011;25333;50.762;4.470;2024-03-22T10:55:35;11.90;;;7.53;;
38972;SDS011;25333;50.762;4.470;2024-03-22T10:58:04;14.25;;;8.68;;
38972;SDS011;25333;50.762;4.470;2024-03-22T11:00:30;10.70;;;7.68;;
38972;SDS011;25333;50.762;4.470;2024-03-22T11:02:57;11.88;;;8.38;;
38972;SDS011;25333;50.762;4.470;2024-03-22T11:05:23;14.07;;;8.18;;
38972;SDS011;25333;50.762;4.470;2024-03-22T11:10:28;12.20;;;7.68;;
38972;SDS011;25333;50.762;4.470;2024-03-22T11:12:55;16.10;;;8.48;;
38972;SDS011;25333;50.762;4.470;2024-03-22T11:15:21;13.88;;;8.43;;
38972;SDS011;25333;50.762;4.470;2024-03-22T11:17:47;11.40;;;8.07;;
38972;SDS011;25333;50.762;4.470;2024-03-22T11:20:14;9.87;;;7.07;;
38972;SDS011;25333;50.762;4.470;2024-03-22T11:22:40;10.77;;;7.45;;
38972;SDS011;25333;50.762;4.470;2024-03-22T11:25:06;12.45;;;6.68;;
38972;SDS011;25333;50.762;4.470;2024-03-22T11:27:32;11.63;;;7.72;;
38972;SDS011;25333;50.762;4.470;2024-03-22T11:29:58;10.70;;;6.87;;
38972;SDS011;25333;50.762;4.470;2024-03-22T11:32:23;12.90;;;7.93;;
38972;SDS011;25333;50.762;4.470;2024-03-22T11:34:49;11.15;;;7.05;;
38972;SDS011;25333;50.762;4.470;2024-03-22T11:37:15;11.30;;;7.07;;
38972;SDS011;25333;50.762;4.470;2024-03-22T11:39:41;10.77;;;6.22;;
38972;SDS011;25333;50.762;4.470;2024-03-22T11:42:06;8.90;;;6.13;;
38972;SDS011;25333;50.762;4.470;2024-03-22T11:44:34;9.88;;;6.40;;
38972;SDS011;25333;50.762;4.470;2024-03-22T11:47:03;10.35;;;6.63;;
38972;SDS011;25333;50.762;4.470;2024-03-22T11:49:29;9.90;;;6.88;;
38972;SDS011;25333;50.762;4.470;2024-03-22T11:51:56;12.05;;;6.75;;
38972;SDS011;25333;50.762;4.470;2024-03-22T11:54:22;8.80;;;6.68;;
38972;SDS011;25333;50.762;4.470;2024-03-22T11:56:50;10.15;;;6.15;;
38972;SDS011;25333;50.762;4.470;2024-03-22T11:59:19;7.93;;;5.53;;
38972;SDS011;25333;50.762;4.470;2024-03-22T12:01:46;8.15;;;5.68;;
38972;SDS011;25333;50.762;4.470;2024-03-22T12:04:12;8.48;;;5.72;;
38972;SDS011;25333;50.762;4.470;2024-03-22T12:06:44;10.40;;;6.80;;
38972;SDS011;25333;50.762;4.470;2024-03-22T12:09:10;10.05;;;6.25;;
38972;SDS011;25333;50.762;4.470;2024-03-22T12:11:38;9.68;;;5.57;;
38972;SDS011;25333;50.762;4.470;2024-03-22T12:14:04;9.63;;;5.93;;
38972;SDS011;25333;50.762;4.470;2024-03-22T12:16:30;11.52;;;7.18;;
38972;SDS011;25333;50.762;4.470;2024-03-22T12:18:57;10.32;;;6.82;;
38972;SDS011;25333;50.762;4.470;2024-03-22T12:21:23;12.07;;;6.25;;
38972;SDS011;25333;50.762;4.470;2024-03-22T12:23:49;11.77;;;6.28;;
38972;SDS011;25333;50.762;4.470;2024-03-22T12:26:15;10.50;;;5.93;;
38972;SDS011;25333;50.762;4.470;2024-03-22T12:28:40;9.73;;;6.25;;
38972;SDS011;25333;50.762;4.470;2024-03-22T12:31:07;9.53;;;5.80;;
38972;SDS011;25333;50.762;4.470;2024-03-22T12:33:34;10.38;;;5.80;;
38972;SDS011;25333;50.762;4.470;2024-03-22T12:36:00;12.63;;;6.90;;
38972;SDS011;25333;50.762;4.470;2024-03-22T12:38:25;9.65;;;6.15;;
38972;SDS011;25333;50.762;4.470;2024-03-22T12:40:51;10.90;;;6.27;;
38972;SDS011;25333;50.762;4.470;2024-03-22T12:43:16;11.77;;;6.23;;
38972;SDS011;25333;50.762;4.470;2024-03-22T12:45:42;10.45;;;6.43;;
38972;SDS011;25333;50.762;4.470;2024-03-22T12:48:08;10.07;;;6.03;;
38972;SDS011;25333;50.762;4.470;2024-03-22T12:50:34;9.70;;;6.07;;
38972;SDS011;25333;50.762;4.470;2024-03-22T12:53:00;10.40;;;6.30;;
38972;SDS011;25333;50.762;4.470;2024-03-22T12:55:26;14.23;;;6.53;;
38972;SDS011;25333;50.762;4.470;2024-03-22T12:57:53;9.93;;;6.55;;
38972;SDS011;25333;50.762;4.470;2024-03-22T13:00:19;8.10;;;6.05;;
38972;SDS011;25333;50.762;4.470;2024-03-22T13:02:45;8.27;;;5.32;;
38972;SDS011;25333;50.762;4.470;2024-03-22T13:05:11;10.60;;;6.43;;
38972;SDS011;25333;50.762;4.470;2024-03-22T13:07:37;10.93;;;6.78;;
38972;SDS011;25333;50.762;4.470;2024-03-22T13:10:03;11.75;;;6.63;;
38972;SDS011;25333;50.762;4.470;2024-03-22T13:12:29;11.75;;;6.78;;
38972;SDS011;25333;50.762;4.470;2024-03-22T13:14:56;9.65;;;5.78;;
38972;SDS011;25333;50.762;4.470;2024-03-22T13:17:22;9.40;;;5.47;;
38972;SDS011;25333;50.762;4.470;2024-03-22T13:19:48;11.18;;;5.82;;
38972;SDS011;25333;50.762;4.470;2024-03-22T13:22:14;9.52;;;5.80;;
38972;SDS011;25333;50.762;4.470;2024-03-22T13:24:43;10.63;;;5.53;;
38972;SDS011;25333;50.762;4.470;2024-03-22T13:27:12;10.38;;;6.45;;
38972;SDS011;25333;50.762;4.470;2024-03-22T13:29:39;10.77;;;5.32;;
38972;SDS011;25333;50.762;4.470;2024-03-22T13:32:05;9.10;;;5.80;;
38972;SDS011;25333;50.762;4.470;2024-03-22T13:34:32;10.63;;;7.25;;
38972;SDS011;25333;50.762;4.470;2024-03-22T13:37:04;11.82;;;6.03;;
38972;SDS011;25333;50.762;4.470;2024-03-22T13:39:31;9.98;;;5.65;;
38972;SDS011;25333;50.762;4.470;2024-03-22T13:41:59;11.52;;;7.05;;
38972;SDS011;25333;50.762;4.470;2024-03-22T13:44:26;10.73;;;7.25;;
38972;SDS011;25333;50.762;4.470;2024-03-22T13:46:52;10.27;;;6.18;;
38972;SDS011;25333;50.762;4.470;2024-03-22T13:49:18;10.73;;;6.80;;
38972;SDS011;25333;50.762;4.470;2024-03-22T13:51:46;11.00;;;7.57;;
38972;SDS011;25333;50.762;4.470;2024-03-22T13:54:12;7.65;;;5.93;;
38972;SDS011;25333;50.762;4.470;2024-03-22T13:56:38;10.83;;;6.27;;
38972;SDS011;25333;50.762;4.470;2024-03-22T13:59:04;9.98;;;6.63;;
38972;SDS011;25333;50.762;4.470;2024-03-22T14:01:31;10.63;;;6.95;;
38972;SDS011;25333;50.762;4.470;2024-03-22T14:03:57;9.52;;;6.30;;
38972;SDS011;25333;50.762;4.470;2024-03-22T14:06:23;9.43;;;6.65;;
38972;SDS011;25333;50.762;4.470;2024-03-22T14:08:48;11.40;;;6.97;;
38972;SDS011;25333;50.762;4.470;2024-03-22T14:11:14;10.93;;;7.13;;
38972;SDS011;25333;50.762;4.470;2024-03-22T14:13:39;10.13;;;6.63;;
38972;SDS011;25333;50.762;4.470;2024-03-22T14:16:05;12.30;;;7.60;;
38972;SDS011;25333;50.762;4.470;2024-03-22T14:18:33;14.57;;;8.93;;
38972;SDS011;25333;50.762;4.470;2024-03-22T14:21:00;12.68;;;8.05;;
38972;SDS011;25333;50.762;4.470;2024-03-22T14:23:27;9.50;;;7.15;;
38972;SDS011;25333;50.762;4.470;2024-03-22T14:25:54;12.85;;;7.43;;